sensor_id;sensor_type;location;lat;lon;timestamp;temperature;humidity
42907;DHT22;28552;51.146;6.576;2022-10-16T00:00:36;13.90;99.90
42907;DHT22;28552;51.146;6.576;2022-10-16T00:03:39;14.00;99.90
42907;DHT22;28552;51.146;6.576;2022-10-16T00:06:39;14.00;99.90
42907;DHT22;28552;51.146;6.576;2022-10-16T00:09:40;14.00;99.90
42907;DHT22;28552;51.146;6.576;2022-10-16T00:12:40;14.00;99.90
42907;DHT22;28552;51.146;6.576;2022-10-16T00:15:41;14.00;99.90
42907;DHT22;28552;51.146;6.576;2022-10-16T00:18:44;14.00;99.90
42907;DHT22;28552;51.146;6.576;2022-10-16T00:21:45;14.00;99.90
42907;DHT22;28552;51.146;6.576;2022-10-16T00:24:45;14.00;99.90
42907;DHT22;28552;51.146;6.576;2022-10-16T00:27:46;14.00;99.90
42907;DHT22;28552;51.146;6.576;2022-10-16T00:30:46;14.00;99.90
42907;DHT22;28552;51.146;6.576;2022-10-16T00:33:48;13.90;99.90
42907;DHT22;28552;51.146;6.576;2022-10-16T00:36:49;13.90;99.90
42907;DHT22;28552;51.146;6.576;2022-10-16T00:39:49;14.00;99.90
42907;DHT22;28552;51.146;6.576;2022-10-16T00:42:50;13.90;99.90
42907;DHT22;28552;51.146;6.576;2022-10-16T00:45:50;13.90;99.90
42907;DHT22;28552;51.146;6.576;2022-10-16T00:52:11;13.90;99.90
42907;DHT22;28552;51.146;6.576;2022-10-16T00:55:13;13.90;99.90
42907;DHT22;28552;51.146;6.576;2022-10-16T00:58:14;13.90;99.90
42907;DHT22;28552;51.146;6.576;2022-10-16T01:01:14;13.90;99.90
42907;DHT22;28552;51.146;6.576;2022-10-16T01:04:15;13.90;99.90
42907;DHT22;28552;51.146;6.576;2022-10-16T01:07:36;13.90;99.90
42907;DHT22;28552;51.146;6.576;2022-10-16T01:13:50;13.80;99.90
42907;DHT22;28552;51.146;6.576;2022-10-16T01:17:04;13.80;99.90
42907;DHT22;28552;51.146;6.576;2022-10-16T01:30:16;13.60;99.90
42907;DHT22;28552;51.146;6.576;2022-10-16T01:33:21;13.60;99.90
42907;DHT22;28552;51.146;6.576;2022-10-16T01:36:28;13.60;99.90
42907;DHT22;28552;51.146;6.576;2022-10-16T01:39:33;13.60;99.90
42907;DHT22;28552;51.146;6.576;2022-10-16T01:42:40;13.60;99.90
42907;DHT22;28552;51.146;6.576;2022-10-16T01:45:42;13.60;99.90
42907;DHT22;28552;51.146;6.576;2022-10-16T01:48:43;13.60;99.90
42907;DHT22;28552;51.146;6.576;2022-10-16T01:51:46;13.60;99.90
42907;DHT22;28552;51.146;6.576;2022-10-16T01:54:52;13.60;99.90
42907;DHT22;28552;51.146;6.576;2022-10-16T01:57:55;13.60;99.90
42907;DHT22;28552;51.146;6.576;2022-10-16T02:00:57;13.60;99.90
42907;DHT22;28552;51.146;6.576;2022-10-16T02:04:01;13.60;99.90
42907;DHT22;28552;51.146;6.576;2022-10-16T02:07:02;13.60;99.90
42907;DHT22;28552;51.146;6.576;2022-10-16T02:10:03;13.50;99.90
42907;DHT22;28552;51.146;6.576;2022-10-16T02:16:09;13.50;99.90
42907;DHT22;28552;51.146;6.576;2022-10-16T02:19:12;13.60;99.90
42907;DHT22;28552;51.146;6.576;2022-10-16T02:22:26;13.60;99.90
42907;DHT22;28552;51.146;6.576;2022-10-16T02:25:32;13.60;99.90
42907;DHT22;28552;51.146;6.576;2022-10-16T02:28:42;13.60;99.90
42907;DHT22;28552;51.146;6.576;2022-10-16T02:31:49;13.60;99.90
42907;DHT22;28552;51.146;6.576;2022-10-16T02:34:51;13.60;99.90
42907;DHT22;28552;51.146;6.576;2022-10-16T02:37:53;13.60;99.90
42907;DHT22;28552;51.146;6.576;2022-10-16T02:40:54;13.70;99.90
42907;DHT22;28552;51.146;6.576;2022-10-16T02:43:55;13.70;99.90
42907;DHT22;28552;51.146;6.576;2022-10-16T02:46:55;13.70;99.90
42907;DHT22;28552;51.146;6.576;2022-10-16T02:49:56;13.70;99.90
42907;DHT22;28552;51.146;6.576;2022-10-16T02:52:56;13.70;99.90
42907;DHT22;28552;51.146;6.576;2022-10-16T02:55:57;13.70;99.90
42907;DHT22;28552;51.146;6.576;2022-10-16T02:58:57;13.60;99.90
42907;DHT22;28552;51.146;6.576;2022-10-16T03:01:58;13.60;99.90
42907;DHT22;28552;51.146;6.576;2022-10-16T03:04:58;13.60;99.90
42907;DHT22;28552;51.146;6.576;2022-10-16T03:07:59;13.60;99.90
42907;DHT22;28552;51.146;6.576;2022-10-16T03:11:01;13.50;99.90
42907;DHT22;28552;51.146;6.576;2022-10-16T03:14:01;13.50;99.90
42907;DHT22;28552;51.146;6.576;2022-10-16T03:17:02;13.50;99.90
42907;DHT22;28552;51.146;6.576;2022-10-16T03:20:03;13.50;99.90
42907;DHT22;28552;51.146;6.576;2022-10-16T03:23:03;13.50;99.90
42907;DHT22;28552;51.146;6.576;2022-10-16T03:26:04;13.40;99.90
42907;DHT22;28552;51.146;6.576;2022-10-16T03:29:05;13.40;99.90
42907;DHT22;28552;51.146;6.576;2022-10-16T03:32:05;13.40;99.90
42907;DHT22;28552;51.146;6.576;2022-10-16T03:35:06;13.40;99.90
42907;DHT22;28552;51.146;6.576;2022-10-16T03:38:07;13.40;99.90
42907;DHT22;28552;51.146;6.576;2022-10-16T03:41:07;13.30;99.90
42907;DHT22;28552;51.146;6.576;2022-10-16T03:44:08;13.40;99.90
42907;DHT22;28552;51.146;6.576;2022-10-16T03:47:08;13.30;99.90
42907;DHT22;28552;51.146;6.576;2022-10-16T03:50:09;13.30;99.90
42907;DHT22;28552;51.146;6.576;2022-10-16T03:53:10;13.20;99.90
42907;DHT22;28552;51.146;6.576;2022-10-16T03:56:10;13.20;99.90
42907;DHT22;28552;51.146;6.576;2022-10-16T03:59:11;13.20;99.90
42907;DHT22;28552;51.146;6.576;2022-10-16T04:02:11;13.20;99.90
42907;DHT22;28552;51.146;6.576;2022-10-16T04:05:12;13.10;99.90
42907;DHT22;28552;51.146;6.576;2022-10-16T04:08:12;13.10;99.90
42907;DHT22;28552;51.146;6.576;2022-10-16T04:11:13;13.00;99.90
42907;DHT22;28552;51.146;6.576;2022-10-16T04:14:13;13.00;99.90
42907;DHT22;28552;51.146;6.576;2022-10-16T04:17:14;13.00;99.90
42907;DHT22;28552;51.146;6.576;2022-10-16T04:20:14;12.90;99.90
42907;DHT22;28552;51.146;6.576;2022-10-16T04:23:15;12.90;99.90
42907;DHT22;28552;51.146;6.576;2022-10-16T04:26:15;12.90;99.90
42907;DHT22;28552;51.146;6.576;2022-10-16T04:29:16;12.90;99.90
42907;DHT22;28552;51.146;6.576;2022-10-16T04:32:16;12.80;99.90
42907;DHT22;28552;51.146;6.576;2022-10-16T04:35:19;12.80;99.90
42907;DHT22;28552;51.146;6.576;2022-10-16T04:38:20;12.80;99.90
42907;DHT22;28552;51.146;6.576;2022-10-16T04:41:20;12.80;99.90
42907;DHT22;28552;51.146;6.576;2022-10-16T04:44:21;12.80;99.90
42907;DHT22;28552;51.146;6.576;2022-10-16T04:47:21;12.70;99.90
42907;DHT22;28552;51.146;6.576;2022-10-16T04:50:22;12.70;99.90
42907;DHT22;28552;51.146;6.576;2022-10-16T04:53:22;12.70;99.90
42907;DHT22;28552;51.146;6.576;2022-10-16T04:56:23;12.60;99.90
42907;DHT22;28552;51.146;6.576;2022-10-16T04:59:24;12.70;99.90
42907;DHT22;28552;51.146;6.576;2022-10-16T05:02:25;12.60;99.90
42907;DHT22;28552;51.146;6.576;2022-10-16T05:05:25;12.60;99.90
42907;DHT22;28552;51.146;6.576;2022-10-16T05:08:26;12.60;99.90
42907;DHT22;28552;51.146;6.576;2022-10-16T05:11:27;12.60;99.90
42907;DHT22;28552;51.146;6.576;2022-10-16T05:14:27;12.60;99.90
42907;DHT22;28552;51.146;6.576;2022-10-16T05:17:28;12.60;99.90
42907;DHT22;28552;51.146;6.576;2022-10-16T05:20:28;12.60;99.90
42907;DHT22;28552;51.146;6.576;2022-10-16T05:23:29;12.60;99.90
42907;DHT22;28552;51.146;6.576;2022-10-16T05:26:29;12.60;99.90
42907;DHT22;28552;51.146;6.576;2022-10-16T05:29:30;12.60;99.90
42907;DHT22;28552;51.146;6.576;2022-10-16T05:32:31;12.50;99.90
42907;DHT22;28552;51.146;6.576;2022-10-16T05:35:31;12.50;99.90
42907;DHT22;28552;51.146;6.576;2022-10-16T05:38:32;12.50;99.90
42907;DHT22;28552;51.146;6.576;2022-10-16T05:41:32;12.50;99.90
42907;DHT22;28552;51.146;6.576;2022-10-16T05:44:33;12.50;99.90
42907;DHT22;28552;51.146;6.576;2022-10-16T05:47:33;12.50;99.90
42907;DHT22;28552;51.146;6.576;2022-10-16T05:50:34;12.50;99.90
42907;DHT22;28552;51.146;6.576;2022-10-16T05:53:35;12.50;99.90
42907;DHT22;28552;51.146;6.576;2022-10-16T05:56:36;12.50;99.90
42907;DHT22;28552;51.146;6.576;2022-10-16T05:59:37;12.50;99.90
42907;DHT22;28552;51.146;6.576;2022-10-16T06:02:38;12.50;99.90
42907;DHT22;28552;51.146;6.576;2022-10-16T06:05:38;12.50;99.90
42907;DHT22;28552;51.146;6.576;2022-10-16T06:08:40;12.60;99.90
42907;DHT22;28552;51.146;6.576;2022-10-16T06:11:41;12.60;99.90
42907;DHT22;28552;51.146;6.576;2022-10-16T06:14:41;12.60;99.90
42907;DHT22;28552;51.146;6.576;2022-10-16T06:17:42;12.60;99.90
42907;DHT22;28552;51.146;6.576;2022-10-16T06:20:42;12.60;99.90
42907;DHT22;28552;51.146;6.576;2022-10-16T06:23:43;12.60;99.90
42907;DHT22;28552;51.146;6.576;2022-10-16T06:26:46;12.70;99.90
42907;DHT22;28552;51.146;6.576;2022-10-16T06:29:46;12.70;99.90
42907;DHT22;28552;51.146;6.576;2022-10-16T06:32:47;12.70;99.90
42907;DHT22;28552;51.146;6.576;2022-10-16T06:35:47;12.70;99.90
42907;DHT22;28552;51.146;6.576;2022-10-16T06:38:48;12.70;99.90
42907;DHT22;28552;51.146;6.576;2022-10-16T06:41:48;12.80;99.90
42907;DHT22;28552;51.146;6.576;2022-10-16T06:44:49;12.80;99.90
42907;DHT22;28552;51.146;6.576;2022-10-16T06:47:49;12.90;99.90
42907;DHT22;28552;51.146;6.576;2022-10-16T06:51:06;12.90;99.90
42907;DHT22;28552;51.146;6.576;2022-10-16T06:54:07;12.90;99.90
42907;DHT22;28552;51.146;6.576;2022-10-16T06:57:08;13.00;99.90
42907;DHT22;28552;51.146;6.576;2022-10-16T07:00:08;13.00;99.90
42907;DHT22;28552;51.146;6.576;2022-10-16T07:03:09;13.10;99.90
42907;DHT22;28552;51.146;6.576;2022-10-16T07:06:11;13.10;99.90
42907;DHT22;28552;51.146;6.576;2022-10-16T07:09:12;13.10;99.90
42907;DHT22;28552;51.146;6.576;2022-10-16T07:12:12;13.10;99.90
42907;DHT22;28552;51.146;6.576;2022-10-16T07:15:13;13.10;99.90
42907;DHT22;28552;51.146;6.576;2022-10-16T07:18:14;13.10;99.90
42907;DHT22;28552;51.146;6.576;2022-10-16T07:21:17;13.10;99.90
42907;DHT22;28552;51.146;6.576;2022-10-16T07:24:17;13.20;99.90
42907;DHT22;28552;51.146;6.576;2022-10-16T07:27:18;13.20;99.90
42907;DHT22;28552;51.146;6.576;2022-10-16T07:30:18;13.30;99.90
42907;DHT22;28552;51.146;6.576;2022-10-16T07:33:19;13.40;99.90
42907;DHT22;28552;51.146;6.576;2022-10-16T07:36:21;13.50;99.90
42907;DHT22;28552;51.146;6.576;2022-10-16T07:39:21;13.50;99.90
42907;DHT22;28552;51.146;6.576;2022-10-16T07:42:22;13.60;99.90
42907;DHT22;28552;51.146;6.576;2022-10-16T07:45:23;13.70;99.90
42907;DHT22;28552;51.146;6.576;2022-10-16T07:48:26;13.80;99.90
42907;DHT22;28552;51.146;6.576;2022-10-16T07:51:27;14.00;99.90
42907;DHT22;28552;51.146;6.576;2022-10-16T07:54:28;14.00;99.90
42907;DHT22;28552;51.146;6.576;2022-10-16T07:57:28;14.10;99.90
42907;DHT22;28552;51.146;6.576;2022-10-16T08:00:29;14.20;99.90
42907;DHT22;28552;51.146;6.576;2022-10-16T08:03:30;14.20;99.90
42907;DHT22;28552;51.146;6.576;2022-10-16T08:06:36;14.20;99.90
42907;DHT22;28552;51.146;6.576;2022-10-16T08:09:37;14.30;99.90
42907;DHT22;28552;51.146;6.576;2022-10-16T08:12:37;14.30;99.90
42907;DHT22;28552;51.146;6.576;2022-10-16T08:15:38;14.30;99.90
42907;DHT22;28552;51.146;6.576;2022-10-16T08:18:40;14.30;99.90
42907;DHT22;28552;51.146;6.576;2022-10-16T08:21:41;14.40;99.90
42907;DHT22;28552;51.146;6.576;2022-10-16T08:24:41;14.40;99.90
42907;DHT22;28552;51.146;6.576;2022-10-16T08:27:42;14.60;99.90
42907;DHT22;28552;51.146;6.576;2022-10-16T08:30:42;14.60;99.90
42907;DHT22;28552;51.146;6.576;2022-10-16T08:33:44;14.60;99.90
42907;DHT22;28552;51.146;6.576;2022-10-16T08:36:47;14.70;99.90
42907;DHT22;28552;51.146;6.576;2022-10-16T08:39:47;14.80;99.90
42907;DHT22;28552;51.146;6.576;2022-10-16T08:46:16;14.90;99.90
42907;DHT22;28552;51.146;6.576;2022-10-16T08:49:20;15.00;99.90
42907;DHT22;28552;51.146;6.576;2022-10-16T08:52:29;15.00;99.90
42907;DHT22;28552;51.146;6.576;2022-10-16T08:55:41;15.10;99.90
42907;DHT22;28552;51.146;6.576;2022-10-16T08:58:49;15.20;99.90
42907;DHT22;28552;51.146;6.576;2022-10-16T09:01:51;15.30;99.90
42907;DHT22;28552;51.146;6.576;2022-10-16T09:15:07;15.60;99.90
42907;DHT22;28552;51.146;6.576;2022-10-16T09:18:26;15.60;99.90
42907;DHT22;28552;51.146;6.576;2022-10-16T09:21:31;15.70;99.90
42907;DHT22;28552;51.146;6.576;2022-10-16T09:24:31;15.80;99.90
42907;DHT22;28552;51.146;6.576;2022-10-16T09:27:32;15.80;99.90
42907;DHT22;28552;51.146;6.576;2022-10-16T09:30:32;15.90;99.90
42907;DHT22;28552;51.146;6.576;2022-10-16T09:33:36;15.90;99.90
42907;DHT22;28552;51.146;6.576;2022-10-16T09:36:42;16.00;99.90
42907;DHT22;28552;51.146;6.576;2022-10-16T09:39:46;16.10;99.90
42907;DHT22;28552;51.146;6.576;2022-10-16T09:42:47;16.20;99.90
42907;DHT22;28552;51.146;6.576;2022-10-16T09:45:56;16.20;99.90
42907;DHT22;28552;51.146;6.576;2022-10-16T09:48:59;16.30;99.90
42907;DHT22;28552;51.146;6.576;2022-10-16T09:52:05;16.30;99.90
42907;DHT22;28552;51.146;6.576;2022-10-16T09:55:16;16.30;99.90
42907;DHT22;28552;51.146;6.576;2022-10-16T09:58:17;16.40;99.90
42907;DHT22;28552;51.146;6.576;2022-10-16T10:01:19;16.40;99.90
42907;DHT22;28552;51.146;6.576;2022-10-16T10:04:22;16.40;99.90
42907;DHT22;28552;51.146;6.576;2022-10-16T10:07:27;16.40;99.90
42907;DHT22;28552;51.146;6.576;2022-10-16T10:10:30;16.50;99.90
42907;DHT22;28552;51.146;6.576;2022-10-16T10:13:31;16.60;99.90
42907;DHT22;28552;51.146;6.576;2022-10-16T10:16:31;16.60;99.90
42907;DHT22;28552;51.146;6.576;2022-10-16T10:19:55;16.60;99.90
42907;DHT22;28552;51.146;6.576;2022-10-16T10:22:57;16.60;99.90
42907;DHT22;28552;51.146;6.576;2022-10-16T10:33:09;16.40;99.90
42907;DHT22;28552;51.146;6.576;2022-10-16T10:36:29;16.40;99.90
42907;DHT22;28552;51.146;6.576;2022-10-16T10:39:37;16.40;99.90
42907;DHT22;28552;51.146;6.576;2022-10-16T10:42:58;16.50;99.90
42907;DHT22;28552;51.146;6.576;2022-10-16T10:46:04;16.50;99.90
42907;DHT22;28552;51.146;6.576;2022-10-16T10:49:14;16.60;99.90
42907;DHT22;28552;51.146;6.576;2022-10-16T10:52:35;16.70;99.90
42907;DHT22;28552;51.146;6.576;2022-10-16T10:55:44;16.80;99.90
42907;DHT22;28552;51.146;6.576;2022-10-16T10:59:13;16.80;99.90
42907;DHT22;28552;51.146;6.576;2022-10-16T11:02:30;16.90;99.90
42907;DHT22;28552;51.146;6.576;2022-10-16T11:05:55;17.00;99.90
42907;DHT22;28552;51.146;6.576;2022-10-16T11:09:09;17.00;99.90
42907;DHT22;28552;51.146;6.576;2022-10-16T11:12:19;17.10;99.90
42907;DHT22;28552;51.146;6.576;2022-10-16T11:15:27;17.20;99.90
42907;DHT22;28552;51.146;6.576;2022-10-16T11:18:39;17.20;99.90
42907;DHT22;28552;51.146;6.576;2022-10-16T11:21:48;17.30;99.90
42907;DHT22;28552;51.146;6.576;2022-10-16T11:24:53;17.40;99.90
42907;DHT22;28552;51.146;6.576;2022-10-16T11:28:06;17.60;99.90
42907;DHT22;28552;51.146;6.576;2022-10-16T11:31:13;17.60;99.90
42907;DHT22;28552;51.146;6.576;2022-10-16T11:34:26;17.60;99.90
42907;DHT22;28552;51.146;6.576;2022-10-16T11:37:36;17.70;99.90
42907;DHT22;28552;51.146;6.576;2022-10-16T11:40:39;17.60;99.90
42907;DHT22;28552;51.146;6.576;2022-10-16T11:43:45;17.60;99.90
42907;DHT22;28552;51.146;6.576;2022-10-16T11:46:53;17.60;99.90
42907;DHT22;28552;51.146;6.576;2022-10-16T11:50:01;17.70;99.90
42907;DHT22;28552;51.146;6.576;2022-10-16T11:56:43;17.90;99.90
42907;DHT22;28552;51.146;6.576;2022-10-16T12:02:52;18.00;99.90
42907;DHT22;28552;51.146;6.576;2022-10-16T12:09:20;18.20;99.90
42907;DHT22;28552;51.146;6.576;2022-10-16T12:12:27;18.20;99.90
42907;DHT22;28552;51.146;6.576;2022-10-16T12:15:31;18.30;99.90
42907;DHT22;28552;51.146;6.576;2022-10-16T12:18:32;18.40;99.90
42907;DHT22;28552;51.146;6.576;2022-10-16T12:21:32;18.50;99.90
42907;DHT22;28552;51.146;6.576;2022-10-16T12:24:36;18.60;99.90
42907;DHT22;28552;51.146;6.576;2022-10-16T12:27:38;18.60;99.90
42907;DHT22;28552;51.146;6.576;2022-10-16T12:30:39;18.60;99.90
42907;DHT22;28552;51.146;6.576;2022-10-16T12:33:42;18.70;99.90
42907;DHT22;28552;51.146;6.576;2022-10-16T12:36:51;18.70;99.90
42907;DHT22;28552;51.146;6.576;2022-10-16T12:39:53;18.80;99.90
42907;DHT22;28552;51.146;6.576;2022-10-16T12:42:55;18.80;99.90
42907;DHT22;28552;51.146;6.576;2022-10-16T12:46:39;18.80;99.90
42907;DHT22;28552;51.146;6.576;2022-10-16T12:49:36;18.80;99.90
42907;DHT22;28552;51.146;6.576;2022-10-16T12:52:38;18.80;99.90
42907;DHT22;28552;51.146;6.576;2022-10-16T12:55:57;18.80;99.90
42907;DHT22;28552;51.146;6.576;2022-10-16T12:59:22;18.70;99.90
42907;DHT22;28552;51.146;6.576;2022-10-16T13:06:08;18.60;99.90
42907;DHT22;28552;51.146;6.576;2022-10-16T13:13:03;18.80;99.90
42907;DHT22;28552;51.146;6.576;2022-10-16T13:25:53;19.10;99.90
42907;DHT22;28552;51.146;6.576;2022-10-16T13:29:00;19.20;99.90
42907;DHT22;28552;51.146;6.576;2022-10-16T13:32:08;19.30;99.90
42907;DHT22;28552;51.146;6.576;2022-10-16T13:35:26;19.50;99.90
42907;DHT22;28552;51.146;6.576;2022-10-16T13:38:29;19.60;99.90
42907;DHT22;28552;51.146;6.576;2022-10-16T13:41:30;19.60;99.90
42907;DHT22;28552;51.146;6.576;2022-10-16T13:44:37;19.50;99.90
42907;DHT22;28552;51.146;6.576;2022-10-16T13:47:39;19.50;99.90
42907;DHT22;28552;51.146;6.576;2022-10-16T13:50:40;19.40;99.90
42907;DHT22;28552;51.146;6.576;2022-10-16T13:53:41;19.40;99.90
42907;DHT22;28552;51.146;6.576;2022-10-16T13:56:42;19.40;99.90
42907;DHT22;28552;51.146;6.576;2022-10-16T13:59:43;19.30;99.90
42907;DHT22;28552;51.146;6.576;2022-10-16T14:02:44;19.20;99.90
42907;DHT22;28552;51.146;6.576;2022-10-16T14:08:53;18.90;99.90
42907;DHT22;28552;51.146;6.576;2022-10-16T14:12:11;18.90;99.90
42907;DHT22;28552;51.146;6.576;2022-10-16T14:15:17;18.80;99.90
42907;DHT22;28552;51.146;6.576;2022-10-16T14:18:21;18.90;99.90
42907;DHT22;28552;51.146;6.576;2022-10-16T14:21:22;18.90;99.90
42907;DHT22;28552;51.146;6.576;2022-10-16T14:24:31;19.00;99.90
42907;DHT22;28552;51.146;6.576;2022-10-16T14:27:35;19.00;99.90
42907;DHT22;28552;51.146;6.576;2022-10-16T14:30:36;19.00;99.90
42907;DHT22;28552;51.146;6.576;2022-10-16T14:33:37;18.90;99.90
42907;DHT22;28552;51.146;6.576;2022-10-16T14:36:40;18.90;99.90
42907;DHT22;28552;51.146;6.576;2022-10-16T14:39:41;18.80;99.90
42907;DHT22;28552;51.146;6.576;2022-10-16T14:42:43;18.80;99.90
42907;DHT22;28552;51.146;6.576;2022-10-16T14:45:51;18.70;99.90
42907;DHT22;28552;51.146;6.576;2022-10-16T14:49:00;18.60;99.90
42907;DHT22;28552;51.146;6.576;2022-10-16T14:52:01;18.60;99.90
42907;DHT22;28552;51.146;6.576;2022-10-16T14:55:02;18.50;99.90
42907;DHT22;28552;51.146;6.576;2022-10-16T14:58:03;18.40;99.90
42907;DHT22;28552;51.146;6.576;2022-10-16T15:01:03;18.40;99.90
42907;DHT22;28552;51.146;6.576;2022-10-16T15:04:10;18.40;99.90
42907;DHT22;28552;51.146;6.576;2022-10-16T15:07:12;18.30;99.90
42907;DHT22;28552;51.146;6.576;2022-10-16T15:10:13;18.20;99.90
42907;DHT22;28552;51.146;6.576;2022-10-16T15:13:14;18.10;99.90
42907;DHT22;28552;51.146;6.576;2022-10-16T15:16:15;18.10;99.90
42907;DHT22;28552;51.146;6.576;2022-10-16T15:19:16;18.00;99.90
42907;DHT22;28552;51.146;6.576;2022-10-16T15:22:17;18.00;99.90
42907;DHT22;28552;51.146;6.576;2022-10-16T15:25:30;18.00;99.90
42907;DHT22;28552;51.146;6.576;2022-10-16T15:28:32;18.00;99.90
42907;DHT22;28552;51.146;6.576;2022-10-16T15:31:32;18.00;99.90
42907;DHT22;28552;51.146;6.576;2022-10-16T15:34:33;18.00;99.90
42907;DHT22;28552;51.146;6.576;2022-10-16T15:37:34;17.90;99.90
42907;DHT22;28552;51.146;6.576;2022-10-16T15:40:34;17.90;99.90
42907;DHT22;28552;51.146;6.576;2022-10-16T15:43:35;17.80;99.90
42907;DHT22;28552;51.146;6.576;2022-10-16T15:46:35;17.80;99.90
42907;DHT22;28552;51.146;6.576;2022-10-16T15:49:37;17.80;99.90
42907;DHT22;28552;51.146;6.576;2022-10-16T15:52:38;17.70;99.90
42907;DHT22;28552;51.146;6.576;2022-10-16T15:55:39;17.70;99.90
42907;DHT22;28552;51.146;6.576;2022-10-16T15:58:40;17.60;99.90
42907;DHT22;28552;51.146;6.576;2022-10-16T16:01:40;17.50;99.90
42907;DHT22;28552;51.146;6.576;2022-10-16T16:04:41;17.50;99.90
42907;DHT22;28552;51.146;6.576;2022-10-16T16:07:41;17.60;99.90
42907;DHT22;28552;51.146;6.576;2022-10-16T16:10:42;17.50;99.90
42907;DHT22;28552;51.146;6.576;2022-10-16T16:13:43;17.40;99.90
42907;DHT22;28552;51.146;6.576;2022-10-16T16:16:43;17.40;99.90
42907;DHT22;28552;51.146;6.576;2022-10-16T16:19:45;17.40;99.90
42907;DHT22;28552;51.146;6.576;2022-10-16T16:22:46;17.30;99.90
42907;DHT22;28552;51.146;6.576;2022-10-16T16:26:06;17.20;99.90
42907;DHT22;28552;51.146;6.576;2022-10-16T16:29:11;17.20;99.90
42907;DHT22;28552;51.146;6.576;2022-10-16T16:32:13;17.20;99.90
42907;DHT22;28552;51.146;6.576;2022-10-16T16:35:13;17.10;99.90
42907;DHT22;28552;51.146;6.576;2022-10-16T16:38:14;17.00;99.90
42907;DHT22;28552;51.146;6.576;2022-10-16T16:41:20;17.00;99.90
42907;DHT22;28552;51.146;6.576;2022-10-16T16:44:21;17.00;99.90
42907;DHT22;28552;51.146;6.576;2022-10-16T16:47:21;16.90;99.90
42907;DHT22;28552;51.146;6.576;2022-10-16T16:50:22;16.90;99.90
42907;DHT22;28552;51.146;6.576;2022-10-16T16:53:23;16.80;99.90
42907;DHT22;28552;51.146;6.576;2022-10-16T16:56:24;16.80;99.90
42907;DHT22;28552;51.146;6.576;2022-10-16T16:59:25;16.70;99.90
42907;DHT22;28552;51.146;6.576;2022-10-16T17:02:25;16.60;99.90
42907;DHT22;28552;51.146;6.576;2022-10-16T17:05:26;16.50;99.90
42907;DHT22;28552;51.146;6.576;2022-10-16T17:08:27;16.40;99.90
42907;DHT22;28552;51.146;6.576;2022-10-16T17:11:28;16.40;99.90
42907;DHT22;28552;51.146;6.576;2022-10-16T17:14:29;16.30;99.90
42907;DHT22;28552;51.146;6.576;2022-10-16T17:17:30;16.20;99.90
42907;DHT22;28552;51.146;6.576;2022-10-16T17:20:30;16.20;99.90
42907;DHT22;28552;51.146;6.576;2022-10-16T17:23:31;16.10;99.90
42907;DHT22;28552;51.146;6.576;2022-10-16T17:26:33;16.10;99.90
42907;DHT22;28552;51.146;6.576;2022-10-16T17:29:33;16.00;99.90
42907;DHT22;28552;51.146;6.576;2022-10-16T17:32:34;15.90;99.90
42907;DHT22;28552;51.146;6.576;2022-10-16T17:35:39;15.90;99.90
42907;DHT22;28552;51.146;6.576;2022-10-16T17:38:41;15.90;99.90
42907;DHT22;28552;51.146;6.576;2022-10-16T17:41:42;15.80;99.90
42907;DHT22;28552;51.146;6.576;2022-10-16T17:44:43;15.80;99.90
42907;DHT22;28552;51.146;6.576;2022-10-16T17:47:44;15.80;99.90
42907;DHT22;28552;51.146;6.576;2022-10-16T17:50:44;15.80;99.90
42907;DHT22;28552;51.146;6.576;2022-10-16T17:53:49;15.90;99.90
42907;DHT22;28552;51.146;6.576;2022-10-16T17:56:50;15.80;99.90
42907;DHT22;28552;51.146;6.576;2022-10-16T17:59:53;15.90;99.90
42907;DHT22;28552;51.146;6.576;2022-10-16T18:02:54;15.80;99.90
42907;DHT22;28552;51.146;6.576;2022-10-16T18:05:55;15.80;99.90
42907;DHT22;28552;51.146;6.576;2022-10-16T18:08:57;15.80;99.90
42907;DHT22;28552;51.146;6.576;2022-10-16T18:11:58;15.80;99.90
42907;DHT22;28552;51.146;6.576;2022-10-16T18:14:59;15.70;99.90
42907;DHT22;28552;51.146;6.576;2022-10-16T18:18:01;15.70;99.90
42907;DHT22;28552;51.146;6.576;2022-10-16T18:21:03;15.70;99.90
42907;DHT22;28552;51.146;6.576;2022-10-16T18:24:04;15.70;99.90
42907;DHT22;28552;51.146;6.576;2022-10-16T18:27:05;15.80;99.90
42907;DHT22;28552;51.146;6.576;2022-10-16T18:30:06;15.80;99.90
42907;DHT22;28552;51.146;6.576;2022-10-16T18:33:07;15.90;99.90
42907;DHT22;28552;51.146;6.576;2022-10-16T18:36:09;15.90;99.90
42907;DHT22;28552;51.146;6.576;2022-10-16T18:39:11;16.00;99.90
42907;DHT22;28552;51.146;6.576;2022-10-16T18:42:12;16.00;99.90
42907;DHT22;28552;51.146;6.576;2022-10-16T18:45:12;16.10;99.90
42907;DHT22;28552;51.146;6.576;2022-10-16T18:48:13;16.10;99.90
42907;DHT22;28552;51.146;6.576;2022-10-16T18:51:20;16.10;99.90
42907;DHT22;28552;51.146;6.576;2022-10-16T18:54:23;16.10;99.90
42907;DHT22;28552;51.146;6.576;2022-10-16T18:57:24;16.10;99.90
42907;DHT22;28552;51.146;6.576;2022-10-16T19:00:27;16.10;99.90
42907;DHT22;28552;51.146;6.576;2022-10-16T19:03:27;16.10;99.90
42907;DHT22;28552;51.146;6.576;2022-10-16T19:06:29;16.10;99.90
42907;DHT22;28552;51.146;6.576;2022-10-16T19:09:29;16.10;99.90
42907;DHT22;28552;51.146;6.576;2022-10-16T19:12:30;16.00;99.90
42907;DHT22;28552;51.146;6.576;2022-10-16T19:15:31;16.00;99.90
42907;DHT22;28552;51.146;6.576;2022-10-16T19:18:31;16.00;99.90
42907;DHT22;28552;51.146;6.576;2022-10-16T19:21:37;16.00;99.90
42907;DHT22;28552;51.146;6.576;2022-10-16T19:24:40;16.00;99.90
42907;DHT22;28552;51.146;6.576;2022-10-16T19:27:40;16.00;99.90
42907;DHT22;28552;51.146;6.576;2022-10-16T19:30:41;15.90;99.90
42907;DHT22;28552;51.146;6.576;2022-10-16T19:33:45;15.90;99.90
42907;DHT22;28552;51.146;6.576;2022-10-16T19:36:46;15.90;99.90
42907;DHT22;28552;51.146;6.576;2022-10-16T19:39:48;15.80;99.90
42907;DHT22;28552;51.146;6.576;2022-10-16T19:42:49;15.80;99.90
42907;DHT22;28552;51.146;6.576;2022-10-16T19:45:49;15.70;99.90
42907;DHT22;28552;51.146;6.576;2022-10-16T19:48:56;15.70;99.90
42907;DHT22;28552;51.146;6.576;2022-10-16T19:51:57;15.70;99.90
42907;DHT22;28552;51.146;6.576;2022-10-16T19:54:57;15.70;99.90
42907;DHT22;28552;51.146;6.576;2022-10-16T19:57:58;15.70;99.90
42907;DHT22;28552;51.146;6.576;2022-10-16T20:00:58;15.70;99.90
42907;DHT22;28552;51.146;6.576;2022-10-16T20:03:59;15.60;99.90
42907;DHT22;28552;51.146;6.576;2022-10-16T20:06:59;15.60;99.90
42907;DHT22;28552;51.146;6.576;2022-10-16T20:10:00;15.60;99.90
42907;DHT22;28552;51.146;6.576;2022-10-16T20:13:01;15.60;99.90
42907;DHT22;28552;51.146;6.576;2022-10-16T20:16:03;15.70;99.90
42907;DHT22;28552;51.146;6.576;2022-10-16T20:19:03;15.60;99.90
42907;DHT22;28552;51.146;6.576;2022-10-16T20:22:04;15.70;99.90
42907;DHT22;28552;51.146;6.576;2022-10-16T20:25:05;15.70;99.90